Terminal Aerodrome Forecast
Issued by NWS

Home | Current Version | Previous Version | Text Only | Print | Product List | Glossary On
Versions: 1 2 3 4 5 6 7 8 9 10 11 12 13 14 15
228
FTUS45 KTFX 270544
TAFLWT
TAF
KLWT 270544Z 2706/2806 VRB04KT P6SM SCT100
     FM271900 02007KT P6SM SCT050 BKN070
      TEMPO 2721/2724 VRB12G20KT 5SM -TSRA BKN040CB
     FM280000 VRB06KT P6SM VCSH SCT040 OVC070=

USA.gov is the U.S. government's official web portal to all federal, state and local government web resources and services.